createdAt,value
2018-08-17T00:00:56.213Z,22.33
2018-08-17T00:03:25.381Z,19.13
2018-08-17T00:05:54.573Z,17.90
2018-08-17T00:08:23.768Z,20.53
2018-08-17T00:10:52.953Z,19.57
2018-08-17T00:13:22.064Z,20.40
2018-08-17T00:15:51.192Z,22.17
2018-08-17T00:18:20.435Z,19.37
2018-08-17T00:20:49.552Z,19.27
2018-08-17T00:23:18.701Z,24.23
2018-08-17T00:25:47.942Z,20.73
2018-08-17T00:28:17.068Z,19.57
2018-08-17T00:30:46.338Z,19.40
2018-08-17T00:33:15.506Z,23.40
2018-08-17T00:35:44.742Z,19.57
2018-08-17T00:38:13.902Z,28.03
2018-08-17T00:40:43.239Z,22.10
2018-08-17T00:43:12.427Z,23.70
2018-08-17T00:45:41.656Z,20.73
2018-08-17T00:48:10.938Z,21.17
2018-08-17T00:50:40.135Z,21.67
2018-08-17T00:53:09.291Z,19.90
2018-08-17T00:55:38.445Z,20.57
2018-08-17T00:58:07.588Z,21.83
2018-08-17T01:00:36.744Z,22.20
2018-08-17T01:03:06.134Z,22.10
2018-08-17T01:05:35.284Z,20.93
2018-08-17T01:08:04.391Z,20.60
2018-08-17T01:10:33.549Z,19.17
2018-08-17T01:13:02.759Z,19.60
2018-08-17T01:15:31.985Z,22.70
2018-08-17T01:18:01.221Z,21.30
2018-08-17T01:20:30.384Z,18.73
2018-08-17T01:22:59.569Z,23.73
2018-08-17T01:25:28.876Z,20.37
2018-08-17T01:27:58.311Z,22.60
2018-08-17T01:30:27.467Z,24.27
2018-08-17T01:32:56.597Z,23.73
2018-08-17T01:35:26.000Z,23.97
2018-08-17T01:37:55.311Z,20.80
2018-08-17T01:40:24.635Z,20.70
2018-08-17T01:42:53.946Z,24.17
2018-08-17T01:45:23.161Z,24.90
2018-08-17T01:47:52.455Z,21.07
2018-08-17T01:50:21.609Z,23.30
2018-08-17T01:52:50.729Z,22.63
2018-08-17T01:55:19.917Z,22.67
2018-08-17T01:57:49.056Z,26.60
2018-08-17T02:00:22.012Z,25.27
2018-08-17T02:02:51.162Z,23.00
2018-08-17T02:05:20.317Z,23.23
2018-08-17T02:07:49.422Z,20.87
2018-08-17T02:10:18.588Z,24.63
2018-08-17T02:12:47.899Z,21.73
2018-08-17T02:15:17.012Z,31.07
2018-08-17T02:17:46.170Z,23.27
2018-08-17T02:20:15.353Z,25.90
2018-08-17T02:22:44.568Z,24.33
2018-08-17T02:25:13.734Z,26.10
2018-08-17T02:27:43.653Z,24.13
2018-08-17T02:30:12.782Z,29.57
2018-08-17T02:32:41.920Z,25.07
2018-08-17T02:35:11.093Z,26.17
2018-08-17T02:37:46.518Z,29.60
2018-08-17T02:40:15.644Z,25.70
2018-08-17T02:42:44.805Z,24.50
2018-08-17T02:45:13.997Z,25.40
2018-08-17T02:47:43.208Z,26.00
2018-08-17T02:50:12.408Z,24.60
2018-08-17T02:52:41.568Z,25.03
2018-08-17T02:55:10.698Z,29.17
2018-08-17T02:57:39.931Z,26.10
2018-08-17T03:00:09.211Z,22.87
2018-08-17T03:02:38.386Z,28.77
2018-08-17T03:05:07.601Z,24.27
2018-08-17T03:07:36.867Z,25.20
2018-08-17T03:10:07.018Z,24.90
2018-08-17T03:12:36.298Z,21.83
2018-08-17T03:15:05.690Z,23.50
2018-08-17T03:17:34.907Z,24.17
2018-08-17T03:20:04.371Z,24.67
2018-08-17T03:22:33.530Z,29.80
2018-08-17T03:25:02.682Z,26.47
2018-08-17T03:27:31.889Z,26.47
2018-08-17T03:30:01.001Z,24.57
2018-08-17T03:32:30.187Z,32.77
2018-08-17T03:34:59.407Z,26.37
2018-08-17T03:37:28.544Z,30.10
2018-08-17T03:39:57.704Z,29.30
2018-08-17T03:42:26.862Z,31.67
2018-08-17T03:44:56.099Z,26.67
2018-08-17T03:47:25.365Z,31.37
2018-08-17T03:49:54.514Z,29.73
2018-08-17T03:52:23.692Z,29.80
2018-08-17T03:54:52.846Z,26.97
2018-08-17T03:57:22.066Z,27.97
2018-08-17T03:59:51.318Z,31.13
2018-08-17T04:02:20.612Z,27.70
2018-08-17T04:04:49.823Z,27.67
2018-08-17T04:07:19.012Z,28.00
2018-08-17T04:09:48.237Z,28.63
2018-08-17T04:12:17.463Z,32.00
2018-08-17T04:14:46.684Z,29.10
2018-08-17T04:17:16.296Z,30.73
2018-08-17T04:19:45.512Z,27.10
2018-08-17T04:22:14.682Z,30.30
2018-08-17T04:24:43.872Z,35.33
2018-08-17T04:27:13.017Z,28.83
2018-08-17T04:29:42.127Z,33.80
2018-08-17T04:32:11.323Z,42.30
2018-08-17T04:34:40.486Z,31.33
2018-08-17T04:37:09.702Z,33.20
2018-08-17T04:39:38.959Z,28.23
2018-08-17T04:42:08.565Z,35.40
2018-08-17T04:44:37.768Z,30.47
2018-08-17T04:47:06.931Z,29.03
2018-08-17T04:49:36.128Z,33.40
2018-08-17T04:52:05.242Z,35.43
2018-08-17T04:54:34.361Z,30.27
2018-08-17T04:57:03.673Z,31.20
2018-08-17T04:59:32.754Z,39.00
2018-08-17T05:02:02.133Z,35.13
2018-08-17T05:04:31.252Z,31.17
2018-08-17T05:07:00.484Z,35.20
2018-08-17T05:09:29.823Z,31.60
2018-08-17T05:11:59.342Z,36.17
2018-08-17T05:14:28.560Z,29.90
2018-08-17T05:16:57.899Z,31.80
2018-08-17T05:19:28.884Z,32.80
2018-08-17T05:21:58.269Z,35.40
2018-08-17T05:24:29.376Z,33.00
2018-08-17T05:26:58.774Z,32.33
2018-08-17T05:29:27.976Z,36.60
2018-08-17T05:31:57.562Z,32.63
2018-08-17T05:34:26.773Z,32.67
2018-08-17T05:36:55.896Z,33.43
2018-08-17T05:39:24.982Z,33.63
2018-08-17T05:41:54.228Z,33.50
2018-08-17T05:44:23.368Z,30.63
2018-08-17T05:46:52.505Z,38.07
2018-08-17T05:49:21.658Z,31.67
2018-08-17T05:51:50.776Z,30.50
2018-08-17T05:54:19.955Z,33.60
2018-08-17T05:56:49.215Z,31.37
2018-08-17T05:59:18.420Z,29.93
2018-08-17T06:01:47.644Z,34.07
2018-08-17T06:04:16.792Z,30.37
2018-08-17T06:06:45.966Z,38.47
2018-08-17T06:09:15.089Z,30.03
2018-08-17T06:11:44.273Z,32.30
2018-08-17T06:14:13.402Z,34.57
2018-08-17T06:16:42.536Z,35.10
2018-08-17T06:19:11.933Z,28.63
2018-08-17T06:21:42.750Z,30.73
2018-08-17T06:24:11.868Z,36.10
2018-08-17T06:26:41.194Z,33.90
2018-08-17T06:29:10.454Z,30.80
2018-08-17T06:31:39.906Z,32.83
2018-08-17T06:34:09.201Z,35.90
2018-08-17T06:36:38.566Z,34.60
2018-08-17T06:39:10.741Z,34.93
2018-08-17T06:41:40.029Z,34.37
2018-08-17T06:44:09.268Z,30.40
2018-08-17T06:46:38.467Z,32.37
2018-08-17T06:49:08.730Z,31.77
2018-08-17T06:51:38.020Z,31.03
2018-08-17T06:54:07.254Z,31.83
2018-08-17T06:56:36.355Z,29.37
2018-08-17T06:59:06.358Z,31.83
2018-08-17T07:01:35.444Z,23.57
2018-08-17T07:04:04.578Z,26.63
2018-08-17T07:06:33.704Z,29.03
2018-08-17T07:09:03.037Z,26.17
2018-08-17T07:11:32.187Z,30.33
2018-08-17T07:14:01.430Z,31.93
2018-08-17T07:16:30.663Z,29.90
2018-08-17T07:18:59.851Z,22.37
2018-08-17T07:21:29.026Z,20.23
2018-08-17T07:23:58.220Z,19.93
2018-08-17T07:26:27.962Z,21.43
2018-08-17T07:28:57.146Z,21.50
2018-08-17T07:31:27.023Z,18.90
2018-08-17T07:33:56.193Z,19.37
2018-08-17T07:36:25.347Z,23.20
2018-08-17T07:38:54.528Z,19.43
2018-08-17T07:41:24.322Z,18.00
2018-08-17T07:43:53.678Z,19.60
2018-08-17T07:46:22.979Z,12.17
2018-08-17T07:48:52.710Z,11.53
2018-08-17T07:51:22.216Z,19.13
2018-08-17T07:53:51.575Z,17.40
2018-08-17T07:56:20.980Z,15.20
2018-08-17T07:58:50.172Z,14.87
2018-08-17T08:01:19.295Z,13.13
2018-08-17T08:03:48.530Z,11.70
2018-08-17T08:06:17.736Z,12.20
2018-08-17T08:08:47.085Z,12.53
2018-08-17T08:11:16.277Z,11.20
2018-08-17T08:13:45.412Z,18.80
2018-08-17T08:16:14.576Z,10.80
2018-08-17T08:18:43.868Z,10.33
2018-08-17T08:21:13.009Z,9.13
2018-08-17T08:23:42.080Z,8.47
2018-08-17T08:26:11.350Z,13.60
2018-08-17T08:28:40.418Z,8.77
2018-08-17T08:31:09.568Z,6.83
2018-08-17T08:33:39.531Z,7.80
2018-08-17T08:36:09.139Z,6.70
2018-08-17T08:38:38.374Z,8.10
2018-08-17T08:41:07.616Z,5.13
2018-08-17T08:43:36.754Z,5.23
2018-08-17T08:46:06.185Z,6.33
2018-08-17T08:48:35.705Z,3.90
2018-08-17T08:51:05.211Z,3.33
2018-08-17T08:53:34.842Z,4.27
2018-08-17T08:56:04.008Z,6.63
2018-08-17T08:58:33.129Z,3.43
2018-08-17T09:01:02.450Z,5.23
2018-08-17T09:03:32.078Z,4.23
2018-08-17T09:06:01.868Z,4.37
2018-08-17T09:08:31.077Z,6.33
2018-08-17T09:11:01.139Z,4.53
2018-08-17T09:13:30.541Z,8.50
2018-08-17T09:15:59.833Z,4.07
2018-08-17T09:18:29.136Z,5.17
2018-08-17T09:20:58.581Z,4.13
2018-08-17T09:23:27.904Z,4.90
2018-08-17T09:25:57.921Z,5.87
2018-08-17T09:28:27.232Z,8.20
2018-08-17T09:30:56.908Z,4.97
2018-08-17T09:33:26.101Z,5.13
2018-08-17T09:35:55.649Z,6.20
2018-08-17T09:38:25.050Z,6.20
2018-08-17T09:40:55.051Z,4.90
2018-08-17T09:43:24.797Z,3.83
2018-08-17T09:45:54.093Z,5.90
2018-08-17T09:48:23.303Z,3.70
2018-08-17T09:50:52.564Z,3.17
2018-08-17T09:53:21.697Z,3.30
2018-08-17T09:55:51.341Z,4.50
2018-08-17T09:58:20.713Z,4.93
2018-08-17T10:00:56.014Z,4.27
2018-08-17T10:03:30.455Z,7.50
2018-08-17T10:06:05.106Z,7.87
2018-08-17T10:09:43.171Z,4.90
2018-08-17T10:12:12.595Z,4.73
2018-08-17T10:14:41.793Z,4.27
2018-08-17T10:17:11.855Z,5.37
2018-08-17T10:19:41.134Z,5.20
2018-08-17T10:22:10.512Z,4.90
2018-08-17T10:24:39.713Z,10.70
2018-08-17T10:27:09.720Z,5.40
2018-08-17T10:29:40.293Z,5.80
2018-08-17T10:32:10.028Z,5.90
2018-08-17T10:34:39.346Z,5.57
2018-08-17T10:37:08.772Z,5.60
2018-08-17T10:39:42.291Z,7.90
2018-08-17T10:42:12.910Z,4.67
2018-08-17T10:44:42.115Z,6.90
2018-08-17T10:47:11.370Z,7.57
2018-08-17T10:49:40.574Z,4.43
2018-08-17T10:52:09.770Z,8.33
2018-08-17T10:54:38.912Z,5.70
2018-08-17T10:57:08.036Z,6.60
2018-08-17T10:59:37.203Z,4.73
2018-08-17T11:02:06.308Z,6.23
2018-08-17T11:04:35.388Z,5.33
2018-08-17T11:07:04.490Z,4.73
2018-08-17T11:09:33.554Z,7.33
2018-08-17T11:12:02.836Z,5.90
2018-08-17T11:14:32.003Z,4.13
2018-08-17T11:17:01.174Z,5.03
2018-08-17T11:19:30.210Z,6.20
2018-08-17T11:21:59.395Z,5.80
2018-08-17T11:24:28.535Z,7.23
2018-08-17T11:26:57.687Z,7.17
2018-08-17T11:29:26.821Z,29.10
2018-08-17T11:31:55.882Z,7.50
2018-08-17T11:34:25.044Z,7.50
2018-08-17T11:36:54.113Z,9.00
2018-08-17T11:39:23.356Z,8.77
2018-08-17T11:41:52.746Z,7.43
2018-08-17T11:44:22.412Z,6.60
2018-08-17T11:46:52.034Z,9.17
2018-08-17T11:49:21.633Z,5.97
2018-08-17T11:51:50.947Z,6.67
2018-08-17T11:54:20.134Z,7.00
2018-08-17T11:56:49.448Z,8.70
2018-08-17T11:59:18.479Z,6.70
2018-08-17T12:01:47.556Z,6.17
2018-08-17T12:04:16.621Z,6.30
2018-08-17T12:06:45.900Z,4.97
2018-08-17T12:09:14.990Z,7.10
2018-08-17T12:11:44.146Z,4.13
2018-08-17T12:14:13.225Z,6.40
2018-08-17T12:16:42.363Z,6.37
2018-08-17T12:19:11.446Z,4.30
2018-08-17T12:21:40.474Z,3.77
2018-08-17T12:24:09.556Z,4.47
2018-08-17T12:26:43.925Z,3.93
2018-08-17T12:29:13.001Z,4.20
2018-08-17T12:31:42.043Z,4.60
2018-08-17T12:34:11.133Z,4.43
2018-08-17T12:36:40.200Z,4.60
2018-08-17T12:39:10.836Z,3.73
2018-08-17T12:41:40.399Z,4.10
2018-08-17T12:44:09.545Z,3.47
2018-08-17T12:46:38.690Z,3.50
2018-08-17T12:49:07.824Z,4.10
2018-08-17T12:51:37.093Z,4.83
2018-08-17T12:54:06.341Z,4.63
2018-08-17T12:56:35.580Z,4.17
2018-08-17T12:59:04.729Z,3.50
2018-08-17T13:01:33.930Z,4.83
2018-08-17T13:04:03.135Z,4.53
2018-08-17T13:06:32.397Z,4.13
2018-08-17T13:09:03.746Z,4.00
2018-08-17T13:11:33.073Z,5.10
2018-08-17T13:14:06.684Z,4.57
2018-08-17T13:16:36.078Z,5.23
2018-08-17T13:19:05.447Z,5.30
2018-08-17T13:21:34.637Z,5.90
2018-08-17T13:24:03.991Z,4.40
2018-08-17T13:26:33.137Z,4.83
2018-08-17T13:29:02.352Z,4.83
2018-08-17T13:31:32.129Z,5.20
2018-08-17T13:34:01.530Z,5.17
2018-08-17T13:36:30.906Z,9.97
2018-08-17T13:39:00.041Z,6.13
2018-08-17T13:41:29.157Z,5.57
2018-08-17T13:43:58.299Z,7.77
2018-08-17T13:46:27.747Z,6.67
2018-08-17T13:48:56.937Z,6.70
2018-08-17T13:51:26.193Z,10.67
2018-08-17T13:53:55.338Z,7.43
2018-08-17T13:56:24.438Z,7.57
2018-08-17T13:58:53.622Z,6.70
2018-08-17T14:01:22.700Z,7.33
2018-08-17T14:03:51.817Z,7.13
2018-08-17T14:06:20.970Z,7.20
2018-08-17T14:08:50.403Z,6.63
2018-08-17T14:11:19.620Z,6.60
2018-08-17T14:13:48.809Z,9.20
2018-08-17T14:16:18.193Z,6.87
2018-08-17T14:18:48.039Z,7.33
2018-08-17T14:21:17.376Z,9.20
2018-08-17T14:23:46.750Z,8.30
2018-08-17T14:26:18.539Z,8.43
2018-08-17T14:28:48.358Z,6.90
2018-08-17T14:31:17.506Z,8.33
2018-08-17T14:33:48.322Z,7.90
2018-08-17T14:36:17.810Z,10.07
2018-08-17T14:38:47.137Z,11.60
2018-08-17T14:41:16.353Z,7.80
2018-08-17T14:43:45.574Z,8.37
2018-08-17T14:46:14.746Z,9.60
2018-08-17T14:48:44.156Z,6.70
2018-08-17T14:51:13.404Z,7.70
2018-08-17T14:53:42.544Z,10.10
2018-08-17T14:56:11.643Z,8.87
2018-08-17T14:58:40.778Z,7.53
2018-08-17T15:01:10.193Z,8.07
2018-08-17T15:03:39.140Z,8.87
2018-08-17T15:06:08.359Z,8.70
2018-08-17T15:08:37.436Z,8.63
2018-08-17T15:11:06.694Z,11.80
2018-08-17T15:13:35.799Z,9.60
2018-08-17T15:16:04.988Z,11.23
2018-08-17T15:18:34.436Z,10.57
2018-08-17T15:21:03.486Z,9.13
2018-08-17T15:23:34.693Z,10.00
2018-08-17T15:26:04.092Z,11.63
2018-08-17T15:28:33.286Z,13.23
2018-08-17T15:31:02.546Z,8.80
2018-08-17T15:33:31.830Z,6.50
2018-08-17T15:36:01.120Z,10.37
2018-08-17T15:38:30.351Z,9.63
2018-08-17T15:40:59.913Z,5.33
2018-08-17T15:43:29.081Z,7.30
2018-08-17T15:45:58.356Z,7.63
2018-08-17T15:48:27.547Z,8.43
2018-08-17T15:50:56.687Z,7.47
2018-08-17T15:53:25.810Z,6.57
2018-08-17T15:55:55.386Z,11.23
2018-08-17T15:58:24.593Z,8.83
2018-08-17T16:00:53.749Z,15.30
2018-08-17T16:03:22.991Z,10.60
2018-08-17T16:05:52.147Z,10.60
2018-08-17T16:08:21.334Z,10.93
2018-08-17T16:10:50.460Z,6.10
2018-08-17T16:13:19.571Z,6.90
2018-08-17T16:15:48.735Z,12.10
2018-08-17T16:18:17.852Z,9.50
2018-08-17T16:20:46.979Z,9.17
2018-08-17T16:23:16.076Z,9.60
2018-08-17T16:25:45.396Z,8.03
2018-08-17T16:28:14.616Z,10.43
2018-08-17T16:30:43.742Z,8.50
2018-08-17T16:33:12.992Z,6.27
2018-08-17T16:35:42.292Z,9.60
2018-08-17T16:38:11.503Z,11.23
2018-08-17T16:40:50.827Z,7.80
2018-08-17T16:43:34.372Z,9.20
2018-08-17T16:46:03.606Z,8.10
2018-08-17T16:48:33.605Z,8.10
2018-08-17T16:51:02.963Z,10.40
2018-08-17T16:53:32.542Z,12.17
2018-08-17T16:56:01.930Z,6.50
2018-08-17T16:58:31.035Z,9.03
2018-08-17T17:01:00.354Z,6.10
2018-08-17T17:03:29.561Z,10.57
2018-08-17T17:06:02.465Z,7.30
2018-08-17T17:08:32.301Z,10.70
2018-08-17T17:11:02.485Z,8.33
2018-08-17T17:13:31.621Z,10.50
2018-08-17T17:16:00.716Z,5.97
2018-08-17T17:18:30.517Z,8.50
2018-08-17T17:21:00.002Z,10.77
2018-08-17T17:23:29.210Z,4.77
2018-08-17T17:25:58.440Z,7.47
2018-08-17T17:28:31.740Z,10.00
2018-08-17T17:31:00.953Z,7.30
2018-08-17T17:33:30.429Z,8.47
2018-08-17T17:35:59.777Z,9.07
2018-08-17T17:38:35.292Z,6.67
2018-08-17T17:41:04.534Z,5.70
2018-08-17T17:43:33.776Z,8.93
2018-08-17T17:46:03.336Z,6.93
2018-08-17T17:48:32.565Z,6.90
2018-08-17T17:51:01.760Z,9.13
2018-08-17T17:53:30.901Z,5.90
2018-08-17T17:56:00.429Z,5.00
2018-08-17T17:58:29.567Z,6.17
2018-08-17T18:01:04.102Z,5.70
2018-08-17T18:03:33.313Z,6.67
2018-08-17T18:06:07.899Z,8.60
2018-08-17T18:08:37.099Z,5.50
2018-08-17T18:11:07.200Z,7.67
2018-08-17T18:13:36.464Z,6.67
2018-08-17T18:16:05.592Z,6.70
2018-08-17T18:18:34.665Z,4.83
2018-08-17T18:21:03.775Z,6.70
2018-08-17T18:23:32.917Z,8.10
2018-08-17T18:26:02.555Z,11.93
2018-08-17T18:28:31.846Z,10.80
2018-08-17T18:31:01.032Z,8.60
2018-08-17T18:33:30.410Z,6.03
2018-08-17T18:35:59.683Z,6.77
2018-08-17T18:38:28.946Z,7.40
2018-08-17T18:40:58.315Z,5.33
2018-08-17T18:43:27.500Z,6.20
2018-08-17T18:45:56.856Z,5.87
2018-08-17T18:48:26.066Z,4.93
2018-08-17T18:50:55.259Z,7.90
2018-08-17T18:53:24.494Z,12.70
2018-08-17T18:55:54.165Z,7.50
2018-08-17T18:58:23.463Z,6.00
2018-08-17T19:00:52.756Z,7.43
2018-08-17T19:03:21.908Z,6.20
2018-08-17T19:05:51.168Z,8.33
2018-08-17T19:08:20.403Z,6.83
2018-08-17T19:10:49.700Z,4.90
2018-08-17T19:13:18.908Z,7.23
2018-08-17T19:15:53.596Z,5.03
2018-08-17T19:18:23.567Z,10.17
2018-08-17T19:20:52.861Z,9.63
2018-08-17T19:23:22.025Z,8.00
2018-08-17T19:25:51.222Z,6.57
2018-08-17T19:28:20.489Z,4.53
2018-08-17T19:30:49.785Z,6.70
2018-08-17T19:33:19.498Z,6.63
2018-08-17T19:35:50.786Z,8.03
2018-08-17T19:38:20.424Z,7.27
2018-08-17T19:40:49.957Z,5.47
2018-08-17T19:43:19.413Z,9.27
2018-08-17T19:45:48.705Z,16.17
2018-08-17T19:48:18.194Z,6.10
2018-08-17T19:50:47.427Z,11.57
2018-08-17T19:53:16.965Z,5.93
2018-08-17T19:55:46.198Z,6.07
2018-08-17T19:58:15.510Z,7.60
2018-08-17T20:00:44.737Z,6.77
2018-08-17T20:03:14.211Z,7.83
2018-08-17T20:05:43.642Z,8.00
2018-08-17T20:08:13.042Z,10.33
2018-08-17T20:10:42.378Z,8.80
2018-08-17T20:13:11.616Z,11.53
2018-08-17T20:15:40.852Z,5.60
2018-08-17T20:18:10.381Z,10.00
2018-08-17T20:20:39.812Z,6.77
2018-08-17T20:23:08.961Z,7.53
2018-08-17T20:25:38.241Z,11.53
2018-08-17T20:28:07.414Z,7.70
2018-08-17T20:30:36.602Z,10.80
2018-08-17T20:33:16.106Z,11.60
2018-08-17T20:35:45.536Z,6.80
2018-08-17T20:38:14.914Z,10.10
2018-08-17T20:40:44.184Z,10.90
2018-08-17T20:43:13.441Z,8.20
2018-08-17T20:45:42.818Z,7.30
2018-08-17T20:48:12.020Z,8.20
2018-08-17T20:50:41.220Z,6.73
2018-08-17T20:53:10.347Z,9.13
2018-08-17T20:55:39.534Z,13.10
2018-08-17T20:58:08.689Z,14.20
2018-08-17T21:00:37.859Z,11.13
2018-08-17T21:03:07.240Z,12.37
2018-08-17T21:05:36.410Z,12.40
2018-08-17T21:08:05.574Z,6.83
2018-08-17T21:10:34.753Z,12.23
2018-08-17T21:13:03.888Z,12.53
2018-08-17T21:15:33.019Z,8.20
2018-08-17T21:18:02.169Z,9.10
2018-08-17T21:20:31.421Z,10.83
2018-08-17T21:23:00.579Z,10.57
2018-08-17T21:25:29.716Z,11.57
2018-08-17T21:27:58.895Z,10.37
2018-08-17T21:30:28.303Z,9.33
2018-08-17T21:32:57.529Z,9.50
2018-08-17T21:35:30.159Z,13.20
2018-08-17T21:37:59.499Z,10.27
2018-08-17T21:40:31.818Z,10.07
2018-08-17T21:43:01.968Z,10.40
2018-08-17T21:45:31.319Z,9.47
2018-08-17T21:48:03.021Z,15.77
2018-08-17T21:50:32.227Z,16.23
2018-08-17T21:53:01.700Z,10.10
2018-08-17T21:55:30.930Z,10.40
2018-08-17T21:58:00.224Z,9.50
2018-08-17T22:00:31.639Z,13.03
2018-08-17T22:03:01.059Z,11.00
2018-08-17T22:05:32.133Z,10.90
2018-08-17T22:08:01.667Z,12.37
2018-08-17T22:10:31.196Z,9.63
2018-08-17T22:13:00.497Z,10.60
2018-08-17T22:15:30.802Z,14.80
2018-08-17T22:18:00.104Z,11.13
2018-08-17T22:20:29.222Z,10.73
2018-08-17T22:22:59.414Z,7.80
2018-08-17T22:25:28.657Z,14.17
2018-08-17T22:27:57.831Z,8.27
2018-08-17T22:30:27.536Z,13.50
2018-08-17T22:32:56.614Z,12.47
2018-08-17T22:35:25.899Z,12.50
2018-08-17T22:37:55.012Z,13.40
2018-08-17T22:40:24.130Z,12.20
2018-08-17T22:42:53.243Z,10.80
2018-08-17T22:45:22.298Z,9.03
2018-08-17T22:47:51.455Z,7.97
2018-08-17T22:50:20.746Z,9.40
2018-08-17T22:52:49.964Z,12.23
2018-08-17T22:55:19.074Z,11.57
2018-08-17T22:57:48.143Z,12.47
2018-08-17T23:00:21.807Z,11.00
2018-08-17T23:02:52.305Z,17.93
2018-08-17T23:05:22.652Z,19.73
2018-08-17T23:07:55.168Z,11.50
2018-08-17T23:10:25.450Z,16.43
2018-08-17T23:12:56.037Z,13.30
2018-08-17T23:15:25.616Z,12.93
2018-08-17T23:17:57.714Z,16.50
2018-08-17T23:20:32.438Z,8.67
2018-08-17T23:23:02.524Z,12.53
2018-08-17T23:25:31.893Z,12.00
2018-08-17T23:28:01.030Z,14.47
2018-08-17T23:30:30.188Z,9.70
2018-08-17T23:32:59.546Z,14.53
2018-08-17T23:35:28.656Z,13.93
2018-08-17T23:37:57.714Z,10.60
2018-08-17T23:40:26.816Z,11.90
2018-08-17T23:42:55.879Z,11.93
2018-08-17T23:45:25.026Z,11.27
2018-08-17T23:47:54.080Z,10.87
2018-08-17T23:50:23.322Z,14.10
2018-08-17T23:52:52.449Z,13.37
2018-08-17T23:55:21.701Z,18.40
2018-08-17T23:57:50.924Z,10.57
